sensor_id;sensor_type;location;lat;lon;timestamp;pressure;altitude;pressure_sealevel;temperature;humidity
49779;BME280;36217;60.232;24.776;2023-02-13T00:00:08;101211.76;;;-0.39;100.00
49779;BME280;36217;60.232;24.776;2023-02-13T00:02:36;101213.42;;;-0.04;100.00
49779;BME280;36217;60.232;24.776;2023-02-13T00:05:03;101210.39;;;-0.08;100.00
49779;BME280;36217;60.232;24.776;2023-02-13T00:07:30;101216.28;;;0.26;100.00
49779;BME280;36217;60.232;24.776;2023-02-13T00:09:57;101219.46;;;-0.32;100.00
49779;BME280;36217;60.232;24.776;2023-02-13T00:12:25;101217.73;;;-0.22;100.00
49779;BME280;36217;60.232;24.776;2023-02-13T00:14:52;101211.81;;;-0.47;100.00
49779;BME280;36217;60.232;24.776;2023-02-13T00:17:19;101209.16;;;-0.16;100.00
49779;BME280;36217;60.232;24.776;2023-02-13T00:19:46;101209.70;;;-0.03;100.00
49779;BME280;36217;60.232;24.776;2023-02-13T00:22:14;101205.57;;;-0.16;100.00
49779;BME280;36217;60.232;24.776;2023-02-13T00:24:41;101199.50;;;0.06;100.00
49779;BME280;36217;60.232;24.776;2023-02-13T00:27:08;101191.23;;;-0.16;100.00
49779;BME280;36217;60.232;24.776;2023-02-13T00:29:35;101187.83;;;-0.09;100.00
49779;BME280;36217;60.232;24.776;2023-02-13T00:32:03;101185.92;;;-0.11;100.00
49779;BME280;36217;60.232;24.776;2023-02-13T00:34:30;101188.17;;;-0.10;100.00
49779;BME280;36217;60.232;24.776;2023-02-13T00:36:57;101183.11;;;-0.12;100.00
49779;BME280;36217;60.232;24.776;2023-02-13T00:39:24;101174.99;;;-0.02;100.00
49779;BME280;36217;60.232;24.776;2023-02-13T00:41:51;101171.00;;;-0.08;100.00
49779;BME280;36217;60.232;24.776;2023-02-13T00:44:19;101168.89;;;0.08;100.00
49779;BME280;36217;60.232;24.776;2023-02-13T00:46:46;101168.05;;;0.00;100.00
49779;BME280;36217;60.232;24.776;2023-02-13T00:49:13;101170.41;;;0.01;100.00
49779;BME280;36217;60.232;24.776;2023-02-13T00:51:40;101167.83;;;-0.03;100.00
49779;BME280;36217;60.232;24.776;2023-02-13T00:54:07;101171.27;;;0.05;100.00
49779;BME280;36217;60.232;24.776;2023-02-13T00:56:35;101171.52;;;-0.15;100.00
49779;BME280;36217;60.232;24.776;2023-02-13T00:59:02;101169.86;;;0.02;100.00
49779;BME280;36217;60.232;24.776;2023-02-13T01:01:29;101170.95;;;-0.08;100.00
49779;BME280;36217;60.232;24.776;2023-02-13T01:03:57;101172.95;;;-0.11;100.00
49779;BME280;36217;60.232;24.776;2023-02-13T01:06:24;101170.00;;;-0.12;100.00
49779;BME280;36217;60.232;24.776;2023-02-13T01:08:51;101167.20;;;0.00;100.00
49779;BME280;36217;60.232;24.776;2023-02-13T01:11:18;101156.90;;;-0.02;100.00
49779;BME280;36217;60.232;24.776;2023-02-13T01:13:45;101150.71;;;-0.02;100.00
49779;BME280;36217;60.232;24.776;2023-02-13T01:16:12;101157.88;;;0.01;100.00
49779;BME280;36217;60.232;24.776;2023-02-13T01:18:40;101162.40;;;-0.13;100.00
49779;BME280;36217;60.232;24.776;2023-02-13T01:21:13;101162.37;;;0.03;100.00
49779;BME280;36217;60.232;24.776;2023-02-13T01:23:41;101154.90;;;0.08;100.00
49779;BME280;36217;60.232;24.776;2023-02-13T01:26:14;101154.34;;;0.13;100.00
49779;BME280;36217;60.232;24.776;2023-02-13T01:28:41;101146.66;;;-0.13;100.00
49779;BME280;36217;60.232;24.776;2023-02-13T01:31:09;101141.42;;;-0.01;100.00
49779;BME280;36217;60.232;24.776;2023-02-13T01:33:36;101140.58;;;0.38;100.00
49779;BME280;36217;60.232;24.776;2023-02-13T01:36:06;101139.27;;;0.03;100.00
49779;BME280;36217;60.232;24.776;2023-02-13T01:38:33;101135.49;;;-0.19;100.00
49779;BME280;36217;60.232;24.776;2023-02-13T01:41:00;101134.26;;;-0.06;100.00
49779;BME280;36217;60.232;24.776;2023-02-13T01:43:43;101133.10;;;-0.25;100.00
49779;BME280;36217;60.232;24.776;2023-02-13T01:46:12;101130.82;;;-0.02;100.00
49779;BME280;36217;60.232;24.776;2023-02-13T01:48:41;101126.45;;;0.11;100.00
49779;BME280;36217;60.232;24.776;2023-02-13T01:51:11;101130.41;;;0.03;100.00
49779;BME280;36217;60.232;24.776;2023-02-13T01:53:43;101131.96;;;0.01;100.00
49779;BME280;36217;60.232;24.776;2023-02-13T01:56:13;101137.77;;;0.01;100.00
49779;BME280;36217;60.232;24.776;2023-02-13T01:58:43;101129.11;;;0.15;100.00
49779;BME280;36217;60.232;24.776;2023-02-13T02:01:11;101123.02;;;-0.18;100.00
49779;BME280;36217;60.232;24.776;2023-02-13T02:03:42;101116.84;;;0.40;100.00
49779;BME280;36217;60.232;24.776;2023-02-13T02:06:16;101118.55;;;0.07;100.00
49779;BME280;36217;60.232;24.776;2023-02-13T02:08:46;101110.83;;;0.05;100.00
49779;BME280;36217;60.232;24.776;2023-02-13T02:11:21;101107.34;;;0.28;100.00
49779;BME280;36217;60.232;24.776;2023-02-13T02:13:52;101107.44;;;-0.09;100.00
49779;BME280;36217;60.232;24.776;2023-02-13T02:16:20;101107.96;;;-0.03;100.00
49779;BME280;36217;60.232;24.776;2023-02-13T02:18:47;101114.76;;;-0.02;100.00
49779;BME280;36217;60.232;24.776;2023-02-13T02:21:45;101111.72;;;0.05;100.00
49779;BME280;36217;60.232;24.776;2023-02-13T02:27:45;101101.82;;;0.24;100.00
49779;BME280;36217;60.232;24.776;2023-02-13T02:30:37;101099.97;;;0.14;100.00
49779;BME280;36217;60.232;24.776;2023-02-13T02:33:17;101100.41;;;-0.17;100.00
49779;BME280;36217;60.232;24.776;2023-02-13T02:35:54;101095.99;;;0.32;100.00
49779;BME280;36217;60.232;24.776;2023-02-13T02:38:40;101097.26;;;0.32;100.00
49779;BME280;36217;60.232;24.776;2023-02-13T02:41:14;101103.64;;;0.11;100.00
49779;BME280;36217;60.232;24.776;2023-02-13T02:43:53;101111.67;;;0.07;100.00
49779;BME280;36217;60.232;24.776;2023-02-13T02:46:28;101103.38;;;0.02;100.00
49779;BME280;36217;60.232;24.776;2023-02-13T02:49:03;101108.79;;;-0.22;100.00
49779;BME280;36217;60.232;24.776;2023-02-13T02:51:37;101114.12;;;0.25;100.00
49779;BME280;36217;60.232;24.776;2023-02-13T02:54:09;101106.95;;;0.02;100.00
49779;BME280;36217;60.232;24.776;2023-02-13T02:56:42;101102.79;;;-0.00;100.00
49779;BME280;36217;60.232;24.776;2023-02-13T02:59:13;101101.87;;;-0.08;100.00
49779;BME280;36217;60.232;24.776;2023-02-13T03:01:43;101092.81;;;0.04;100.00
49779;BME280;36217;60.232;24.776;2023-02-13T03:04:18;101085.23;;;0.31;100.00
49779;BME280;36217;60.232;24.776;2023-02-13T03:06:51;101081.70;;;-0.28;100.00
49779;BME280;36217;60.232;24.776;2023-02-13T03:09:22;101072.65;;;0.22;100.00
49779;BME280;36217;60.232;24.776;2023-02-13T03:11:54;101068.50;;;0.05;100.00
49779;BME280;36217;60.232;24.776;2023-02-13T03:14:24;101068.69;;;0.06;100.00
49779;BME280;36217;60.232;24.776;2023-02-13T03:16:52;101059.16;;;0.38;100.00
49779;BME280;36217;60.232;24.776;2023-02-13T03:19:29;101056.48;;;0.43;100.00
49779;BME280;36217;60.232;24.776;2023-02-13T03:22:03;101055.17;;;0.34;100.00
49779;BME280;36217;60.232;24.776;2023-02-13T03:24:40;101054.68;;;0.39;100.00
49779;BME280;36217;60.232;24.776;2023-02-13T03:27:19;101052.90;;;0.43;100.00
49779;BME280;36217;60.232;24.776;2023-02-13T03:29:55;101050.37;;;0.17;100.00
49779;BME280;36217;60.232;24.776;2023-02-13T03:32:30;101051.25;;;0.16;100.00
49779;BME280;36217;60.232;24.776;2023-02-13T03:35:12;101052.06;;;0.41;100.00
49779;BME280;36217;60.232;24.776;2023-02-13T03:37:44;101049.63;;;0.40;100.00
49779;BME280;36217;60.232;24.776;2023-02-13T03:40:20;101047.55;;;-0.12;100.00
49779;BME280;36217;60.232;24.776;2023-02-13T03:42:52;101039.99;;;0.11;100.00
49779;BME280;36217;60.232;24.776;2023-02-13T03:45:27;101038.33;;;0.20;100.00
49779;BME280;36217;60.232;24.776;2023-02-13T03:47:56;101032.66;;;0.20;100.00
49779;BME280;36217;60.232;24.776;2023-02-13T03:50:26;101027.79;;;0.51;100.00
49779;BME280;36217;60.232;24.776;2023-02-13T03:52:57;101027.22;;;0.20;100.00
49779;BME280;36217;60.232;24.776;2023-02-13T03:55:30;101014.53;;;0.35;100.00
49779;BME280;36217;60.232;24.776;2023-02-13T03:58:03;101016.44;;;0.82;100.00
49779;BME280;36217;60.232;24.776;2023-02-13T04:00:35;101017.73;;;0.11;100.00
49779;BME280;36217;60.232;24.776;2023-02-13T04:03:12;101017.53;;;0.68;100.00
49779;BME280;36217;60.232;24.776;2023-02-13T04:05:42;101012.04;;;0.24;100.00
49779;BME280;36217;60.232;24.776;2023-02-13T04:08:10;101016.32;;;0.67;100.00
49779;BME280;36217;60.232;24.776;2023-02-13T04:10:41;101026.26;;;1.15;100.00
49779;BME280;36217;60.232;24.776;2023-02-13T04:13:14;101015.02;;;1.01;100.00
49779;BME280;36217;60.232;24.776;2023-02-13T04:15:48;101019.83;;;0.91;100.00
49779;BME280;36217;60.232;24.776;2023-02-13T04:18:19;101027.09;;;0.82;100.00
49779;BME280;36217;60.232;24.776;2023-02-13T04:20:47;101024.15;;;1.06;100.00
49779;BME280;36217;60.232;24.776;2023-02-13T04:23:14;101021.41;;;0.93;100.00
49779;BME280;36217;60.232;24.776;2023-02-13T04:25:44;101018.67;;;0.93;100.00
49779;BME280;36217;60.232;24.776;2023-02-13T04:28:13;101014.66;;;0.60;100.00
49779;BME280;36217;60.232;24.776;2023-02-13T04:30:40;101013.70;;;1.52;100.00
49779;BME280;36217;60.232;24.776;2023-02-13T04:33:07;101008.57;;;1.19;100.00
49779;BME280;36217;60.232;24.776;2023-02-13T04:35:34;101005.81;;;1.47;100.00
49779;BME280;36217;60.232;24.776;2023-02-13T04:38:02;101002.53;;;1.10;100.00
49779;BME280;36217;60.232;24.776;2023-02-13T04:40:29;101007.66;;;1.41;100.00
49779;BME280;36217;60.232;24.776;2023-02-13T04:42:56;101008.83;;;1.08;100.00
49779;BME280;36217;60.232;24.776;2023-02-13T04:45:23;101009.92;;;1.36;100.00
49779;BME280;36217;60.232;24.776;2023-02-13T04:47:51;101006.05;;;1.38;100.00
49779;BME280;36217;60.232;24.776;2023-02-13T04:50:19;101001.20;;;1.49;100.00
49779;BME280;36217;60.232;24.776;2023-02-13T04:52:46;101005.08;;;1.62;100.00
49779;BME280;36217;60.232;24.776;2023-02-13T04:55:14;101008.26;;;1.66;100.00
49779;BME280;36217;60.232;24.776;2023-02-13T04:57:41;101003.09;;;0.91;100.00
49779;BME280;36217;60.232;24.776;2023-02-13T05:00:09;100999.10;;;1.33;100.00
49779;BME280;36217;60.232;24.776;2023-02-13T05:02:36;100997.86;;;1.27;100.00
49779;BME280;36217;60.232;24.776;2023-02-13T05:05:03;100992.66;;;1.34;100.00
49779;BME280;36217;60.232;24.776;2023-02-13T05:07:30;100993.03;;;1.72;100.00
49779;BME280;36217;60.232;24.776;2023-02-13T05:09:58;100997.63;;;1.89;100.00
49779;BME280;36217;60.232;24.776;2023-02-13T05:12:25;100997.32;;;1.69;100.00
49779;BME280;36217;60.232;24.776;2023-02-13T05:14:52;101004.28;;;1.73;100.00
49779;BME280;36217;60.232;24.776;2023-02-13T05:17:19;100989.32;;;1.65;100.00
49779;BME280;36217;60.232;24.776;2023-02-13T05:19:46;100996.61;;;1.15;100.00
49779;BME280;36217;60.232;24.776;2023-02-13T05:22:13;100996.68;;;1.87;100.00
49779;BME280;36217;60.232;24.776;2023-02-13T05:24:40;100985.45;;;1.46;100.00
49779;BME280;36217;60.232;24.776;2023-02-13T05:27:08;100985.73;;;1.97;100.00
49779;BME280;36217;60.232;24.776;2023-02-13T05:29:35;100979.46;;;1.54;100.00
49779;BME280;36217;60.232;24.776;2023-02-13T05:32:02;100975.55;;;1.57;100.00
49779;BME280;36217;60.232;24.776;2023-02-13T05:34:29;100978.52;;;1.85;100.00
49779;BME280;36217;60.232;24.776;2023-02-13T05:36:56;100971.98;;;2.05;100.00
49779;BME280;36217;60.232;24.776;2023-02-13T05:39:24;100966.67;;;1.93;100.00
49779;BME280;36217;60.232;24.776;2023-02-13T05:41:51;100975.94;;;1.70;100.00
49779;BME280;36217;60.232;24.776;2023-02-13T05:44:18;100984.35;;;1.61;100.00
49779;BME280;36217;60.232;24.776;2023-02-13T05:46:46;100979.88;;;1.90;100.00
49779;BME280;36217;60.232;24.776;2023-02-13T05:49:14;100981.69;;;1.42;100.00
49779;BME280;36217;60.232;24.776;2023-02-13T05:51:42;100977.23;;;1.55;100.00
49779;BME280;36217;60.232;24.776;2023-02-13T05:54:09;100980.33;;;1.88;100.00
49779;BME280;36217;60.232;24.776;2023-02-13T05:56:36;100979.89;;;1.96;100.00
49779;BME280;36217;60.232;24.776;2023-02-13T05:59:03;100987.24;;;1.66;100.00
49779;BME280;36217;60.232;24.776;2023-02-13T06:01:30;100983.50;;;2.07;100.00
49779;BME280;36217;60.232;24.776;2023-02-13T06:03:57;100985.53;;;1.77;100.00
49779;BME280;36217;60.232;24.776;2023-02-13T06:06:24;100991.59;;;2.33;100.00
49779;BME280;36217;60.232;24.776;2023-02-13T06:08:51;100998.95;;;2.00;100.00
49779;BME280;36217;60.232;24.776;2023-02-13T06:11:19;100999.70;;;2.07;100.00
49779;BME280;36217;60.232;24.776;2023-02-13T06:13:46;100986.28;;;2.61;100.00
49779;BME280;36217;60.232;24.776;2023-02-13T06:16:13;100981.66;;;2.31;100.00
49779;BME280;36217;60.232;24.776;2023-02-13T06:18:40;100979.70;;;1.66;100.00
49779;BME280;36217;60.232;24.776;2023-02-13T06:21:08;100974.35;;;2.13;100.00
49779;BME280;36217;60.232;24.776;2023-02-13T06:23:35;100971.69;;;2.08;100.00
49779;BME280;36217;60.232;24.776;2023-02-13T06:26:03;100976.21;;;2.31;100.00
49779;BME280;36217;60.232;24.776;2023-02-13T06:28:31;100972.14;;;2.60;100.00
49779;BME280;36217;60.232;24.776;2023-02-13T06:30:58;100972.35;;;2.63;100.00
49779;BME280;36217;60.232;24.776;2023-02-13T06:33:25;100971.74;;;2.14;100.00
49779;BME280;36217;60.232;24.776;2023-02-13T06:35:52;100968.90;;;2.49;100.00
49779;BME280;36217;60.232;24.776;2023-02-13T06:38:19;100959.72;;;2.27;100.00
49779;BME280;36217;60.232;24.776;2023-02-13T06:40:47;100963.25;;;2.27;100.00
49779;BME280;36217;60.232;24.776;2023-02-13T06:43:15;100947.88;;;2.43;100.00
49779;BME280;36217;60.232;24.776;2023-02-13T06:45:43;100946.67;;;2.15;100.00
49779;BME280;36217;60.232;24.776;2023-02-13T06:48:10;100966.59;;;2.19;100.00
49779;BME280;36217;60.232;24.776;2023-02-13T06:50:37;100946.25;;;2.35;100.00
49779;BME280;36217;60.232;24.776;2023-02-13T06:53:04;100936.24;;;2.68;100.00
49779;BME280;36217;60.232;24.776;2023-02-13T06:55:31;100936.61;;;2.59;100.00
49779;BME280;36217;60.232;24.776;2023-02-13T06:57:58;100952.31;;;2.52;100.00
49779;BME280;36217;60.232;24.776;2023-02-13T07:00:25;100957.19;;;2.78;100.00
49779;BME280;36217;60.232;24.776;2023-02-13T07:02:52;100953.87;;;2.52;100.00
49779;BME280;36217;60.232;24.776;2023-02-13T07:05:20;100940.14;;;2.69;100.00
49779;BME280;36217;60.232;24.776;2023-02-13T07:07:47;100960.91;;;3.15;100.00
49779;BME280;36217;60.232;24.776;2023-02-13T07:10:14;100956.91;;;2.62;100.00
49779;BME280;36217;60.232;24.776;2023-02-13T07:12:41;100967.47;;;3.21;100.00
49779;BME280;36217;60.232;24.776;2023-02-13T07:15:09;100968.44;;;3.56;100.00
49779;BME280;36217;60.232;24.776;2023-02-13T07:17:35;100961.16;;;3.07;100.00
49779;BME280;36217;60.232;24.776;2023-02-13T07:20:03;100962.92;;;3.28;100.00
49779;BME280;36217;60.232;24.776;2023-02-13T07:22:31;100960.01;;;3.20;100.00
49779;BME280;36217;60.232;24.776;2023-02-13T07:24:59;100948.55;;;2.94;100.00
49779;BME280;36217;60.232;24.776;2023-02-13T07:27:27;100949.35;;;3.44;100.00
49779;BME280;36217;60.232;24.776;2023-02-13T07:29:54;100952.59;;;3.50;100.00
49779;BME280;36217;60.232;24.776;2023-02-13T07:32:21;100957.63;;;3.78;100.00
49779;BME280;36217;60.232;24.776;2023-02-13T07:34:48;100963.96;;;3.62;100.00
49779;BME280;36217;60.232;24.776;2023-02-13T07:37:15;100951.08;;;3.33;100.00
49779;BME280;36217;60.232;24.776;2023-02-13T07:39:42;100941.73;;;3.65;100.00
49779;BME280;36217;60.232;24.776;2023-02-13T07:42:09;100942.77;;;4.07;100.00
49779;BME280;36217;60.232;24.776;2023-02-13T07:44:37;100942.81;;;4.52;100.00
49779;BME280;36217;60.232;24.776;2023-02-13T07:47:04;100949.89;;;3.73;100.00
49779;BME280;36217;60.232;24.776;2023-02-13T07:49:31;100950.12;;;3.82;100.00
49779;BME280;36217;60.232;24.776;2023-02-13T07:51:58;100945.47;;;4.22;100.00
49779;BME280;36217;60.232;24.776;2023-02-13T07:54:25;100956.36;;;3.79;100.00
49779;BME280;36217;60.232;24.776;2023-02-13T07:56:52;100930.96;;;3.48;100.00
49779;BME280;36217;60.232;24.776;2023-02-13T07:59:19;100945.80;;;3.97;100.00
49779;BME280;36217;60.232;24.776;2023-02-13T08:01:46;100930.88;;;3.87;100.00
49779;BME280;36217;60.232;24.776;2023-02-13T08:04:14;100926.01;;;3.88;100.00
49779;BME280;36217;60.232;24.776;2023-02-13T08:06:41;100920.41;;;4.36;100.00
49779;BME280;36217;60.232;24.776;2023-02-13T08:09:16;100905.42;;;3.97;100.00
49779;BME280;36217;60.232;24.776;2023-02-13T08:11:44;100919.33;;;4.03;100.00
49779;BME280;36217;60.232;24.776;2023-02-13T08:14:11;100917.40;;;4.50;100.00
49779;BME280;36217;60.232;24.776;2023-02-13T08:16:38;100915.17;;;3.52;100.00
49779;BME280;36217;60.232;24.776;2023-02-13T08:19:05;100921.38;;;3.95;100.00
49779;BME280;36217;60.232;24.776;2023-02-13T08:21:32;100928.08;;;4.26;100.00
49779;BME280;36217;60.232;24.776;2023-02-13T08:24:00;100929.39;;;4.30;100.00
49779;BME280;36217;60.232;24.776;2023-02-13T08:26:26;100931.39;;;3.76;100.00
49779;BME280;36217;60.232;24.776;2023-02-13T08:28:54;100917.19;;;4.03;100.00
49779;BME280;36217;60.232;24.776;2023-02-13T08:31:21;100910.37;;;3.99;100.00
49779;BME280;36217;60.232;24.776;2023-02-13T08:33:48;100922.07;;;4.17;100.00
49779;BME280;36217;60.232;24.776;2023-02-13T08:36:15;100930.20;;;4.43;100.00
49779;BME280;36217;60.232;24.776;2023-02-13T08:38:42;100928.23;;;4.63;100.00
49779;BME280;36217;60.232;24.776;2023-02-13T08:41:09;100922.77;;;4.18;100.00
49779;BME280;36217;60.232;24.776;2023-02-13T08:43:36;100933.65;;;3.54;100.00
49779;BME280;36217;60.232;24.776;2023-02-13T08:46:04;100927.10;;;4.63;100.00
49779;BME280;36217;60.232;24.776;2023-02-13T08:48:31;100923.90;;;4.60;100.00
49779;BME280;36217;60.232;24.776;2023-02-13T08:50:58;100922.61;;;3.82;100.00
49779;BME280;36217;60.232;24.776;2023-02-13T08:53:25;100924.72;;;4.54;100.00
49779;BME280;36217;60.232;24.776;2023-02-13T08:55:52;100929.51;;;3.85;100.00
49779;BME280;36217;60.232;24.776;2023-02-13T08:58:21;100924.36;;;4.29;100.00
49779;BME280;36217;60.232;24.776;2023-02-13T09:00:48;100933.55;;;3.92;100.00
49779;BME280;36217;60.232;24.776;2023-02-13T09:03:15;100924.36;;;4.67;100.00
49779;BME280;36217;60.232;24.776;2023-02-13T09:05:43;100921.19;;;4.51;100.00
49779;BME280;36217;60.232;24.776;2023-02-13T09:08:10;100924.32;;;4.44;100.00
49779;BME280;36217;60.232;24.776;2023-02-13T09:10:37;100921.55;;;4.37;100.00
49779;BME280;36217;60.232;24.776;2023-02-13T09:13:05;100926.77;;;3.89;100.00
49779;BME280;36217;60.232;24.776;2023-02-13T09:15:32;100925.45;;;4.20;100.00
49779;BME280;36217;60.232;24.776;2023-02-13T09:17:59;100927.05;;;4.23;100.00
49779;BME280;36217;60.232;24.776;2023-02-13T09:20:27;100929.97;;;3.47;100.00
49779;BME280;36217;60.232;24.776;2023-02-13T09:22:54;100928.93;;;4.24;100.00
49779;BME280;36217;60.232;24.776;2023-02-13T09:25:22;100921.84;;;4.11;100.00
49779;BME280;36217;60.232;24.776;2023-02-13T09:27:49;100917.91;;;3.84;100.00
49779;BME280;36217;60.232;24.776;2023-02-13T09:30:16;100926.08;;;3.58;100.00
49779;BME280;36217;60.232;24.776;2023-02-13T09:32:43;100922.31;;;4.71;100.00
49779;BME280;36217;60.232;24.776;2023-02-13T09:35:10;100937.41;;;4.35;100.00
49779;BME280;36217;60.232;24.776;2023-02-13T09:37:37;100924.16;;;4.01;100.00
49779;BME280;36217;60.232;24.776;2023-02-13T09:40:09;100923.57;;;3.72;100.00
49779;BME280;36217;60.232;24.776;2023-02-13T09:42:42;100927.88;;;4.05;100.00
49779;BME280;36217;60.232;24.776;2023-02-13T09:45:10;100929.19;;;4.51;100.00
49779;BME280;36217;60.232;24.776;2023-02-13T09:47:40;100929.90;;;3.86;100.00
49779;BME280;36217;60.232;24.776;2023-02-13T09:50:12;100926.03;;;4.61;100.00
49779;BME280;36217;60.232;24.776;2023-02-13T09:52:43;100914.95;;;4.23;100.00
49779;BME280;36217;60.232;24.776;2023-02-13T09:55:15;100919.15;;;4.19;100.00
49779;BME280;36217;60.232;24.776;2023-02-13T09:57:47;100919.61;;;4.57;100.00
49779;BME280;36217;60.232;24.776;2023-02-13T10:00:20;100926.25;;;4.35;100.00
49779;BME280;36217;60.232;24.776;2023-02-13T10:03:26;100930.92;;;4.40;100.00
49779;BME280;36217;60.232;24.776;2023-02-13T10:06:02;100928.48;;;3.81;100.00
49779;BME280;36217;60.232;24.776;2023-02-13T10:08:40;100923.71;;;4.39;100.00
49779;BME280;36217;60.232;24.776;2023-02-13T10:11:23;100922.41;;;4.32;100.00
49779;BME280;36217;60.232;24.776;2023-02-13T10:14:03;100924.58;;;4.68;100.00
49779;BME280;36217;60.232;24.776;2023-02-13T10:16:35;100917.28;;;4.62;100.00
49779;BME280;36217;60.232;24.776;2023-02-13T10:19:13;100912.33;;;4.22;100.00
49779;BME280;36217;60.232;24.776;2023-02-13T10:21:44;100912.56;;;5.07;100.00
49779;BME280;36217;60.232;24.776;2023-02-13T10:24:21;100917.31;;;4.54;100.00
49779;BME280;36217;60.232;24.776;2023-02-13T10:26:53;100925.87;;;3.87;100.00
49779;BME280;36217;60.232;24.776;2023-02-13T10:29:24;100933.73;;;4.15;100.00
49779;BME280;36217;60.232;24.776;2023-02-13T10:31:55;100922.11;;;4.56;100.00
49779;BME280;36217;60.232;24.776;2023-02-13T10:34:26;100911.48;;;4.72;100.00
49779;BME280;36217;60.232;24.776;2023-02-13T10:36:57;100920.01;;;4.50;100.00
49779;BME280;36217;60.232;24.776;2023-02-13T10:39:26;100920.85;;;4.52;100.00
49779;BME280;36217;60.232;24.776;2023-02-13T10:41:57;100928.11;;;4.81;100.00
49779;BME280;36217;60.232;24.776;2023-02-13T10:44:35;100914.92;;;4.45;100.00
49779;BME280;36217;60.232;24.776;2023-02-13T10:47:17;100917.19;;;4.47;100.00
49779;BME280;36217;60.232;24.776;2023-02-13T10:50:06;100925.79;;;4.74;100.00
49779;BME280;36217;60.232;24.776;2023-02-13T10:52:46;100919.45;;;4.68;100.00
49779;BME280;36217;60.232;24.776;2023-02-13T10:55:28;100923.03;;;4.51;100.00
49779;BME280;36217;60.232;24.776;2023-02-13T10:58:06;100907.45;;;4.67;100.00
49779;BME280;36217;60.232;24.776;2023-02-13T11:00:39;100909.98;;;4.52;100.00
49779;BME280;36217;60.232;24.776;2023-02-13T11:03:16;100913.68;;;4.67;100.00
49779;BME280;36217;60.232;24.776;2023-02-13T11:05:43;100922.87;;;4.83;100.00
49779;BME280;36217;60.232;24.776;2023-02-13T11:08:17;100916.36;;;4.88;100.00
49779;BME280;36217;60.232;24.776;2023-02-13T11:10:44;100914.03;;;4.53;100.00
49779;BME280;36217;60.232;24.776;2023-02-13T11:13:17;100911.68;;;4.66;100.00
49779;BME280;36217;60.232;24.776;2023-02-13T11:16:03;100919.77;;;4.25;100.00
49779;BME280;36217;60.232;24.776;2023-02-13T11:18:33;100924.24;;;4.65;100.00
49779;BME280;36217;60.232;24.776;2023-02-13T11:21:04;100913.79;;;4.67;100.00
49779;BME280;36217;60.232;24.776;2023-02-13T11:23:35;100924.43;;;3.99;100.00
49779;BME280;36217;60.232;24.776;2023-02-13T11:26:05;100906.15;;;4.99;100.00
49779;BME280;36217;60.232;24.776;2023-02-13T11:28:36;100912.26;;;4.80;100.00
49779;BME280;36217;60.232;24.776;2023-02-13T11:31:15;100924.96;;;5.12;100.00
49779;BME280;36217;60.232;24.776;2023-02-13T11:33:44;100927.97;;;4.84;100.00
49779;BME280;36217;60.232;24.776;2023-02-13T11:36:14;100938.51;;;4.27;100.00
49779;BME280;36217;60.232;24.776;2023-02-13T11:38:42;100930.80;;;4.49;100.00
49779;BME280;36217;60.232;24.776;2023-02-13T11:41:11;100937.24;;;4.66;100.00
49779;BME280;36217;60.232;24.776;2023-02-13T11:43:45;100923.41;;;4.62;100.00
49779;BME280;36217;60.232;24.776;2023-02-13T11:46:17;100924.69;;;4.62;100.00
49779;BME280;36217;60.232;24.776;2023-02-13T11:48:56;100925.31;;;4.54;100.00
49779;BME280;36217;60.232;24.776;2023-02-13T11:51:42;100914.33;;;4.74;100.00
49779;BME280;36217;60.232;24.776;2023-02-13T11:54:44;100910.29;;;4.38;100.00
49779;BME280;36217;60.232;24.776;2023-02-13T11:57:19;100910.31;;;5.14;100.00
49779;BME280;36217;60.232;24.776;2023-02-13T11:59:48;100893.09;;;4.78;100.00
49779;BME280;36217;60.232;24.776;2023-02-13T12:02:18;100901.56;;;5.02;100.00
49779;BME280;36217;60.232;24.776;2023-02-13T12:04:47;100894.55;;;4.81;100.00
49779;BME280;36217;60.232;24.776;2023-02-13T12:07:18;100902.15;;;3.87;100.00
49779;BME280;36217;60.232;24.776;2023-02-13T12:09:48;100905.84;;;4.12;100.00
49779;BME280;36217;60.232;24.776;2023-02-13T12:12:24;100904.77;;;4.23;100.00
49779;BME280;36217;60.232;24.776;2023-02-13T12:14:51;100899.38;;;4.49;100.00
49779;BME280;36217;60.232;24.776;2023-02-13T12:17:21;100905.88;;;4.00;100.00
49779;BME280;36217;60.232;24.776;2023-02-13T12:19:50;100922.30;;;4.32;100.00
49779;BME280;36217;60.232;24.776;2023-02-13T12:22:28;100919.08;;;4.43;100.00
49779;BME280;36217;60.232;24.776;2023-02-13T12:25:36;100907.32;;;4.32;100.00
49779;BME280;36217;60.232;24.776;2023-02-13T12:28:12;100908.08;;;4.27;100.00
49779;BME280;36217;60.232;24.776;2023-02-13T12:30:53;100906.17;;;4.40;100.00
49779;BME280;36217;60.232;24.776;2023-02-13T12:33:33;100912.01;;;4.61;100.00
49779;BME280;36217;60.232;24.776;2023-02-13T12:36:09;100921.54;;;3.80;100.00
49779;BME280;36217;60.232;24.776;2023-02-13T12:38:52;100925.02;;;4.21;100.00
49779;BME280;36217;60.232;24.776;2023-02-13T12:41:29;100969.92;;;3.98;100.00
49779;BME280;36217;60.232;24.776;2023-02-13T12:44:28;100928.46;;;4.30;100.00
49779;BME280;36217;60.232;24.776;2023-02-13T12:47:09;100944.84;;;4.30;100.00
49779;BME280;36217;60.232;24.776;2023-02-13T12:49:58;100942.01;;;4.48;100.00
49779;BME280;36217;60.232;24.776;2023-02-13T12:52:39;100934.36;;;4.19;100.00
49779;BME280;36217;60.232;24.776;2023-02-13T12:55:19;100936.49;;;4.00;100.00
49779;BME280;36217;60.232;24.776;2023-02-13T12:57:59;100938.20;;;4.32;100.00